Ride Results

The Lighthorse Ride Harden (29-06-2013)
Ride distance: 80.0 km

Outcomes - The Lighthorse Ride Harden (29-06-2013)
Division No. of Entries Retired / DNE Completed Withdrawn Ineligible V/O Percentage Completed
HW 29 - 21 1 - 7 72.41%
MW 50 - 37 2 2 9 74.00%
LW 28 - 21 1 - 6 75.00%
JN 12 - 9 - - 3 75.00%
Totals 119 - 88 4 2 25 73.95%
Results - The Lighthorse Ride Harden (29-06-2013)
No. Rider Horse Place Time Leg Speeds Total
Km/Hr
H/R bpm
Heavyweight
18 Patrick Leary Raz Amber 1 (BC) 4:56:00 19.0, 13.3 16.22 31, 45, 49 (Avg:47)
97 Marty Moran Jelignite Jack 2 5:14:00 18.3, 12.3 15.29 34, 43, 46 (Avg:44)
24 Heidi Wade Yinbilliko Jackson 3 5:25:00 17.6, 11.9 14.77 38, 40, 47 (Avg:43)
93 Laurie Stevens Salz Bossy Boots 4 5:54:00 16.4, 10.8 13.56 40, 42, 43 (Avg:42)
22 Haydn Fisher Raymar Bennjamin 5 6:03:00 14.7, 11.5 13.22 30, 39, 60 (Avg:49)
19 Donna Tidswell Oakleigh Park Bailey 5 6:03:00 15.2, 11.1 13.22 33, 39, 46 (Avg:42)
4 John Robertson Karabil Benjiman 7 6:14:00 12.6, 13.1 12.83 45, 49, 47 (Avg:48)
48 Robert Catlin Double TT It ' n' Abit 8 6:28:00 13.4, 11.0 12.37 32, 39, 40 (Avg:39)
83 John Dawson Duce 9 6:42:00 13.7, 10.0 11.94 28, 43, 46 (Avg:44)
61 Stacey Wood Yukon Park Shiloh 10 6:44:00 12.8, 10.7 11.88 35, 41, 53 (Avg:47)
G61 Alan West Ehsun Sahara 11 6:50:00 13.6, 9.7 11.71 32, 45, 48 (Avg:46)
92 Louise Mackey Jum-Jum Nah-Zara 12 7:33:00 13.3, 8.1 10.60 36, 46, 50 (Avg:48)
33 Con Bouzianis Conderosa Ozzie 13 8:09:00 11.7, 7.9 9.82 30, 43, 45 (Avg:44)
13 Ian Dreghorn Conderosa Millenium Silver 13 8:09:00 11.7, 7.9 9.82 30, 41, 43 (Avg:42)
34 Alan Mackinder De-Nova Samir 15 8:15:00 11.3, 8.0 9.70 35, 48, 55 (Avg:51)
75 Stuart Lymbery Aloha Typic 16 8:18:00 11.0, 8.1 9.64 32, 41, 44 (Avg:42)
58 Sue Warren Razorback Flash 17 8:35:00 10.6, 7.9 9.32 47, 46, 54 (Avg:50)
79 Allie Roberts Jaydon Count 18 8:36:00 10.4, 8.0 9.30 31, 38, 41 (Avg:39)
28 Mark Walton Madgwick Jumpin' Jack Flash 19 8:42:00 10.3, 7.9 9.20 38, 46, 49 (Avg:47)
50 Susan Luthy Ningadoo Kolo 20 8:55:00 9.1, 8.7 8.97 28, 40, 48 (Avg:44)
64 Paddy Smith Akifa Farras Mangu 21 22:00:00 2.3, 14.2 3.64 38, 40, 48 (Avg:44)
G54 Trent Haymen DBA C Zar Heart Rate L2 0:00:00 10.5, 7.4 - 48, 46, 65 (Avg:55)
80 Rhonda Herries Chiko Heart Rate L2 0:00:00 10.4, 8.0 - 31, 51, 65 (Avg:58)
27 Peter Norman Paris Lame L2 0:00:00 13.3, 10.5 - 28, 39, 41 (Avg:40)
52 Gavin Peacock Chop Chop Lame L2 0:00:00 12.1, 7.3 - 28, 40, 59 (Avg:49)
42 Marita Rifai Tianna Lame L2 0:00:00 13.3, 8.3 - 38, 40, 47 (Avg:43)
G51 Evan Drain-Shepheard Currowan Starlite Lame L1 0:00:00 13.3 - 33, 40 (Avg:40)
G65 Mark Lindsay Kintamani Jaffah Withdrawn L1 0:00:00 - - 32, 52 (Avg:52)
88 Anthony Parker Black Heart Recharge Lame L1 0:00:00 10.6 - 35, 45 (Avg:45)
Middleweight
G52 Jenny Shepheard Currowan Mojo 1 5:10:00 27.6, 9.5 15.48 29, 39, 39 (Avg:39)
38 Sorsha Stuart-Rokvic Blake's Heaven Bombora 2 (BC) 5:11:00 16.6, 13.9 15.43 30, 44, 44 (Avg:44)
99 Bev Turner Shazzam 3 5:14:00 18.3, 12.3 15.29 36, 40, 45 (Avg:42)
82 April Newman Danjera Elsabina 4 5:20:00 16.3, 13.4 15.00 33, 39, 45 (Avg:42)
45 Bruce Carter Dasharm Zayesha 5 5:28:00 13.3, 16.9 14.63 47, 44, 54 (Avg:49)
71 Noni Seagrim Coolinda Park Kaliente 6 5:47:00 14.7, 12.6 13.83 31, 42, 43 (Avg:42)
86 Jennifer Rogers Tristram Hero 7 5:52:00 14.7, 12.2 13.64 30, 38, 44 (Avg:41)
17 Kevin Guihot Windradyne Ferrero 8 6:03:00 15.2, 11.1 13.22 30, 34, 40 (Avg:37)
14 Kristie Wright Blake's Heaven Summer Reign 9 6:10:00 14.1, 11.5 12.97 32, 40, 46 (Avg:43)
54 Ben Hudson Cap Braveheart 10 6:22:00 13.2, 11.7 12.57 40, 41, 46 (Avg:43)
76 Katsumi Ishiguro Keldon Park Sophena 11 6:27:00 14.6, 10.1 12.40 39, 47, 55 (Avg:51)
47 Clare Feary Die Kinder Junrei 12 6:28:00 14.1, 10.4 12.37 38, 42, 50 (Avg:46)
37 Jo Davis Wicketly Good 13 6:30:00 14.2, 10.3 12.31 32, 50, 44 (Avg:47)
3 Mette Sutton Tuldar The Magician 14 6:33:00 13.4, 10.8 12.21 34, 41, 38 (Avg:39)
30 Jeff Adams Jazzpers Brush 15 6:49:00 12.8, 10.4 11.74 28, 40, 48 (Avg:44)
70 Madeleine Whyte Castlebar Nato 16 6:54:00 12.7, 10.3 11.59 38, 41, 50 (Avg:45)
96 Jeremy Banwell Blake's Heaven Caruso 17 6:56:00 13.6, 9.4 11.54 27, 38, 43 (Avg:40)
90 Gertraud Norton Franshar Park Khayaal 17 6:56:00 13.3, 9.6 11.54 30, 39, 47 (Avg:43)
36 Andrew Mackinder Sundown Park Cariad 19 6:58:00 12.7, 10.0 11.48 28, 38, 40 (Avg:39)
V126 Wendy Riha Castlebar Truffle 20 7:30:00 10.8, 10.4 10.67 32, 35, 44 (Avg:39)
g64 Hailey Knight Ralvon Vim 21 8:02:00 11.9, 8.0 9.96 33, 41, 59 (Avg:50)
g63 Mary Symons Back Creek Karen 21 8:02:00 11.9, 8.0 9.96 40, 48, 41 (Avg:44)
77 Anne Lymbery Garonne Park Walker 23 8:18:00 11.0, 8.1 9.64 38, 53, 54 (Avg:53)
66 Rachel Benad Windradyne Ella 24 8:24:00 11.1, 7.9 9.52 32, 40, 45 (Avg:42)
89 Talea Hasko-Stewart Blake's Heaven Ventura 25 8:30:00 11.5, 7.4 9.41 37, 39, 45 (Avg:42)
8 Rochelle Knihinicki Ky 26 8:33:00 10.1, 8.4 9.36 35, 45, 49 (Avg:47)
G59 Kayte Barnard Die Kinder Mariska 27 8:34:00 11.2, 7.5 9.34 50, 40, 43 (Avg:41)
44 Victoria Bonham Bridle Track Bogart 28 8:46:00 11.1, 7.2 9.13 41, 39, 47 (Avg:43)
78 Sharyn Coulston Castlebar Tolkien 28 8:46:00 11.1, 7.2 9.13 30, 44, 46 (Avg:45)
46 Jennifer Gilbertson Webbs Creek Cattle Baron 28 8:46:00 11.1, 7.2 9.13 35, 43, 46 (Avg:44)
72 Angelina Patterson Razorback Rimfire 31 8:47:00 11.1, 7.2 9.11 42, 49, 59 (Avg:54)
G53 Fiona Coddington Wanstead Travelling Soldier 32 8:54:00 10.5, 7.4 8.99 44, 44, 42 (Avg:43)
95 Jo Bailey Lyndrian Genesis 33 8:55:00 9.1, 8.7 8.97 38, 39, 47 (Avg:43)
2 Bonnie Robinson Forest Dale Dream Catcher 34 9:00:00 11.2, 6.8 8.89 32, 38, 40 (Avg:39)
56 Jenny Berg Oso Laredo 35 22:00:00 2.3, 15.2 3.64 33, 41, 46 (Avg:43)
5 Chris Cheney War Fare 35 22:00:00 2.4, 13.5 3.64 34, 38, 44 (Avg:41)
31 Jolene Cole Kurrajong Oak 35 22:00:00 2.3, 19.6 3.64 33, 48, 46 (Avg:47)
84 Simon Bain Akifa Farras Ice Lame L2 0:00:00 12.6, 10.2 - 40, 46, 43 (Avg:44)
63 Peter Bice Out of Africa Lame L2 0:00:00 12.7, 7.3 - 32, 50, 49 (Avg:49)
V100 Fay Bushby Western Bey Lame L2 0:00:00 20.4, 11.5 - 30, 44, 41 (Avg:42)
G60 Bree Hollingsworth Matta Mia L'Atim Heart Rate L2 0:00:00 13.2, 7.9 - 49, 52, 62 (Avg:57)
16 Ellen Vine Silver Ridge Navarro Lame L2 0:00:00 14.6, 12.8 - 32, 36, 42 (Avg:39)
73 Brett Willis Carlwood Park Austen Lame L2 0:00:00 16.3, 15.2 - 30, 40, 43 (Avg:41)
94 April Bonham Lyndrian Lace Lame L1 0:00:00 8.6 - 36, 44 (Avg:44)
9 Colleen Clancy Kadimah Park Hamelech Withdrawn L1 0:00:00 - - 33, 42 (Avg:42)
10 Kate Gibson Moonshine Ally Lame L1 0:00:00 13.3 - 30, 45 (Avg:45)
G58 Barbara Wiecek S'Shaada Quill Lame L1 0:00:00 12.7 - 38, 55 (Avg:55)
91 Jai Ingram Ainslie Pericles Not started P/R 0:00:00 - - 38
7 Allison Knihinicki Ithilien Elantari Withdrawn P/R 0:00:00 - - 33, 38 (Avg:38)
V234 Jacki Liuzzi Khayem Requisite Not started P/R 0:00:00 - - -
Lightweight
69 Tracy-Lee Feltrin Kelkette Park Lorelle 1 5:20:00 16.5, 13.1 15.00 64, 53, 55 (Avg:54)
68 Nicole Whitehead Riverlee Ashira 1 (BC) 5:20:00 16.5, 13.1 15.00 36, 50, 42 (Avg:46)
23 Vetea Facchini Trigger 3 5:25:00 17.6, 11.9 14.77 32, 40, 54 (Avg:47)
21 Jacque Thoms Blake's Heaven Harissa 4 5:44:00 16.4, 11.4 13.95 33, 39, 44 (Avg:41)
51 Sue Todd Shakista 4 5:44:00 16.4, 11.4 13.95 36, 48, 50 (Avg:49)
G57 Louise Stevens Ellen Grove Shantelle 6 5:54:00 16.4, 10.8 13.56 32, 40, 43 (Avg:41)
60 Allix Jones Nioka Park Jag 7 6:02:00 14.4, 11.8 13.26 36, 44, 52 (Avg:48)
1 Kerry Alderton Mireen Yasmeera 8 6:40:00 12.6, 11.1 12.00 40, 53, 51 (Avg:52)
81 Amanda Apperley Jon De Le Nissan 9 6:42:00 13.4, 10.3 11.94 36, 44, 45 (Avg:44)
29 Irene Adams Shane D Survivor 10 6:49:00 12.8, 10.4 11.74 47, 55, 53 (Avg:54)
32 Alison Pellow Jirrima Smooth Sailor 11 6:54:00 13.7, 9.4 11.59 29, 37, 45 (Avg:41)
V91 Kim Noble Bacchante Spartacus 12 6:59:00 12.1, 10.5 11.46 33, 51, 42 (Avg:46)
53 Linda Logan Willow Valley Dartanyan 13 7:33:00 12.8, 8.4 10.60 29, 38, 43 (Avg:40)
11 Robin Gossip Forest Dale Superstition 14 7:58:00 11.2, 8.6 10.04 36, 38, 42 (Avg:40)
35 Emma Broome Die Kinder Samhain 15 8:15:00 11.3, 8.0 9.70 38, 48, 50 (Avg:49)
39 Kali Curtis Blake's Heaven Carousel 16 8:30:00 11.5, 7.4 9.41 42, 40, 37 (Avg:38)
40 Emma Miles-Howe Wickwood Keera 16 8:30:00 11.5, 7.4 9.41 35, 41, 48 (Avg:44)
85 Sonya Nicholls Suncrest Ghazaal 18 8:42:00 10.3, 7.9 9.20 31, 40, 46 (Avg:43)
G56 Leeanne Hestelow Burren-Dah Bumble Bee 19 8:54:00 10.5, 7.4 8.99 30, 42, 48 (Avg:45)
15 Fia Hasko-Stewart Wantley Kaliph 20 22:00:00 2.3, 14.6 3.64 28, 41, 38 (Avg:39)
55 Lauren Howson Oso Bandit 20 22:00:00 2.3, 15.3 3.64 34, 49, 47 (Avg:48)
20 Samar Al-Saleh Conderosa Arassim Lame L2 0:00:00 11.7, 8.8 - 38, 42, 44 (Avg:43)
41 Sally Fenner Sierra Lodge Artic Whispers Lame L2 0:00:00 11.4, 7.3 - 30, 41, 45 (Avg:43)
G62 Mary Hollingsworth Henley Farm Hunaak Heart Rate L2 0:00:00 13.2, 7.9 - 42, 44, 48 (Avg:46)
74 Leanne Holz Carlwood Park Frosty Lame L1 0:00:00 16.3 - 36, 40 (Avg:40)
26 Shelly Ison Aloha Fabian Lame L1 0:00:00 13.2 - 31, 42 (Avg:42)
25 Donna Scott Rowallan Raven Withdrawn L1 0:00:00 - - 40, 40 (Avg:40)
67 Bianca Whitehead Kelkette Park Silver Earl Lame L1 0:00:00 12.7 - 42, 47 (Avg:47)
Junior
87 Shantel Nagle Windradyne Ballerina 1 6:58:00 12.7, 10.0 11.48 25, 30, 38 (Avg:34)
V90 Alison Noble DVS Barnaby 2 6:59:00 12.1, 10.5 11.46 30, 30, 42 (Avg:36)
225 Harrison Berg Castlebar Condor 3 7:30:00 10.8, 10.4 10.67 31, 48, 52 (Avg:50)
62 Victoria Bice The Byzantine Diamonds 4 8:10:00 12.7, 7.3 9.80 32, 36, 41 (Avg:38)
43 Indigo Noonan Windaroo Devina Glamour 5 8:46:00 11.1, 7.2 9.13 35, 46, 50 (Avg:48)
G55 Cybele Coddington Burren-dah Narla 6 8:54:00 10.5, 7.4 8.99 27, 39, 44 (Avg:41)
49 Brooke Luthy Mystical Knight 7 8:55:00 9.1, 8.7 8.97 26, 39, 45 (Avg:42)
6 Georgia Curry Macquarie Park Shafeeq 8 (BC) 22:00:00 2.3, 16.0 3.64 42, 47, 50 (Avg:48)
12 Olivia De Gruchy Blake's Heaven Venus 8 22:00:00 2.3, 14.8 3.64 32, 43, 48 (Avg:45)
57 Stacey Clarke Al-Marah Thunder Bay Lame L2 0:00:00 13.2, 11.7 - 40, 44, 52 (Avg:48)
65 Sarah Hill Ashmore ParkTanami Lame L2 0:00:00 12.7, 10.1 - 29, 35, 44 (Avg:39)
59 Tayla Warren Elrebel Afternoon Delight Lame L2 0:00:00 12.7, 10.0 - 36, 43, 49 (Avg:46)